Time;durP1;ratioP1;P1;durP2;ratioP2;P2;SDS_P1;SDS_P2;PMS_P1;PMS_P2;Temp;Humidity;BMP_temperature;BMP_pressure;BME280_temperature;BME280_humidity;BME280_pressure;Samples;Min_cycle;Max_cycle;Signal;HPM_P1;HPM_P2
2024/01/22 00:00:20;;;;;;;;;;;;;;;-140.72;0.00;52500.44;5042396;27;19921;-70
2024/01/22 00:02:45;;;;;;;;;;;;;;;-140.72;0.00;52502.47;5120658;27;19919;-70
2024/01/22 00:05:10;;;;;;;;;;;;;;;-140.72;0.00;52520.72;5047604;27;19960;-70
2024/01/22 00:07:36;;;;;;;;;;;;;;;-140.72;0.00;52508.56;5045754;27;20326;-69
2024/01/22 00:10:02;;;;;;;;;;;;;;;-140.72;0.00;52502.47;5040181;27;19916;-69
2024/01/22 00:12:27;;;;;;;;;;;;;;;-140.72;0.00;52476.09;5031641;27;20016;-70
2024/01/22 00:14:52;;;;;;;;;;;;;;;-140.72;0.00;52463.91;5044810;27;19981;-70
2024/01/22 00:17:18;;;;;;;;;;;;;;;-140.72;0.00;52482.16;5047729;27;19921;-69
2024/01/22 00:19:43;;;;;;;;;;;;;;;-140.72;0.00;52457.81;5056763;27;19917;-70
2024/01/22 00:22:08;;;;;;;;;;;;;;;-140.72;0.00;52488.25;5047273;27;20382;-69
2024/01/22 00:24:33;;;;;;;;;;;;;;;-140.72;0.00;52526.81;5074456;27;20081;-70
2024/01/22 00:26:58;;;;;;;;;;;;;;;-140.72;0.00;52524.78;5065645;27;19996;-69
2024/01/22 00:29:24;;;;;;;;;;;;;;;-140.72;0.00;52486.22;5045734;27;19990;-70
2024/01/22 00:31:49;;;;;;;;;;;;;;;-140.72;0.00;52447.69;5043669;28;19916;-69
2024/01/22 00:34:14;;;;;;;;;;;;;;;-140.72;0.00;52496.38;5051062;27;19964;-69
2024/01/22 00:36:39;;;;;;;;;;;;;;;-140.72;0.00;52518.69;5041043;27;20369;-69
2024/01/22 00:39:05;;;;;;;;;;;;;;;-140.72;0.00;52476.09;5034066;28;19962;-69
2024/01/22 00:41:30;;;;;;;;;;;;;;;-140.72;0.00;52461.88;5047216;27;19917;-71
2024/01/22 00:43:55;;;;;;;;;;;;;;;-140.72;0.00;52500.44;5077772;27;19917;-70
2024/01/22 00:46:21;;;;;;;;;;;;;;;-140.72;0.00;52506.53;5057765;27;19921;-70
2024/01/22 00:48:46;;;;;;;;;;;;;;;-140.72;0.00;52480.16;5077045;27;20372;-70
2024/01/22 00:51:11;;;;;;;;;;;;;;;-140.72;0.00;52482.16;5071918;27;19944;-70
2024/01/22 00:53:36;;;;;;;;;;;;;;;-140.72;0.00;52472.03;5050043;27;19920;-69
2024/01/22 00:56:02;;;;;;;;;;;;;;;-140.72;0.00;52480.16;5073274;27;19917;-70
2024/01/22 00:58:27;;;;;;;;;;;;;;;-140.72;0.00;52484.19;5063770;27;20313;-69
2024/01/22 01:00:52;;;;;;;;;;;;;;;-140.72;0.00;52514.63;5031648;27;19928;-70
2024/01/22 01:03:18;;;;;;;;;;;;;;;-140.72;0.00;52474.06;5041175;27;19923;-70
2024/01/22 01:05:43;;;;;;;;;;;;;;;-140.72;0.00;52496.38;5115537;27;20009;-69
2024/01/22 01:08:08;;;;;;;;;;;;;;;-140.72;0.00;52467.97;5066647;27;20036;-70
2024/01/22 01:10:33;;;;;;;;;;;;;;;-140.72;0.00;52492.31;5110677;27;20009;-70
2024/01/22 01:12:58;;;;;;;;;;;;;;;-140.72;0.00;52486.22;5110255;27;19970;-69
2024/01/22 01:15:24;;;;;;;;;;;;;;;-140.72;0.00;52476.09;5091323;27;20420;-69
2024/01/22 01:17:49;;;;;;;;;;;;;;;-140.72;0.00;52496.38;5131481;27;20405;-71
2024/01/22 01:20:14;;;;;;;;;;;;;;;-140.72;0.00;52470.00;5047986;27;20359;-70
2024/01/22 01:22:40;;;;;;;;;;;;;;;-140.72;0.00;52480.16;5035347;27;19921;-70
2024/01/22 01:25:05;;;;;;;;;;;;;;;-140.72;0.00;52496.38;5081002;27;20007;-70
2024/01/22 01:27:30;;;;;;;;;;;;;;;-140.72;0.00;52478.13;5047857;27;19924;-70
2024/01/22 01:29:55;;;;;;;;;;;;;;;-140.72;0.00;52447.69;5043537;27;19949;-70
2024/01/22 01:32:21;;;;;;;;;;;;;;;-140.72;0.00;52443.63;5083927;27;19915;-70
2024/01/22 01:34:46;;;;;;;;;;;;;;;-140.72;0.00;52470.00;5036357;27;20007;-70
2024/01/22 01:37:11;;;;;;;;;;;;;;;-140.72;0.00;52476.09;5085294;27;19921;-70
2024/01/22 01:39:36;;;;;;;;;;;;;;;-140.72;0.00;52459.84;5041087;27;20008;-71
2024/01/22 01:42:02;;;;;;;;;;;;;;;-140.72;0.00;52457.81;5037455;27;19953;-70
2024/01/22 01:44:50;;;;;;;;;;;;;;;-140.72;0.00;52443.63;5047412;27;19965;-70
2024/01/22 01:47:16;;;;;;;;;;;;;;;-140.72;0.00;52465.94;5071853;27;20004;-71
2024/01/22 01:49:41;;;;;;;;;;;;;;;-140.72;0.00;52463.91;5056282;27;19975;-71
2024/01/22 01:52:08;;;;;;;;;;;;;;;-140.72;0.00;52480.16;5070841;27;19972;-70
2024/01/22 01:54:35;;;;;;;;;;;;;;;-140.72;0.00;52474.06;5053070;27;19924;-70
2024/01/22 01:57:00;;;;;;;;;;;;;;;-140.72;0.00;52504.50;5050874;27;19925;-70
2024/01/22 01:59:25;;;;;;;;;;;;;;;-140.72;0.00;52496.38;5050653;27;19942;-70
2024/01/22 02:01:50;;;;;;;;;;;;;;;-140.72;0.00;52482.16;5040134;27;19939;-70
2024/01/22 02:04:16;;;;;;;;;;;;;;;-140.72;0.00;52494.34;5076892;27;20350;-69
2024/01/22 02:06:41;;;;;;;;;;;;;;;-140.72;0.00;52478.13;5066189;27;20487;-70
2024/01/22 02:09:07;;;;;;;;;;;;;;;-140.72;3.54;52518.69;5048746;28;19986;-69
2024/01/22 02:11:32;;;;;;;;;;;;;;;-140.72;36.87;52500.44;5072924;27;19915;-70
2024/01/22 02:13:57;;;;;;;;;;;;;;;-140.72;51.29;52498.41;5090287;27;19943;-69
2024/01/22 02:16:22;;;;;;;;;;;;;;;-140.72;42.24;52476.09;5118842;27;19916;-69
2024/01/22 02:18:48;;;;;;;;;;;;;;;-140.72;49.85;52465.94;5116853;27;19923;-70
2024/01/22 02:21:14;;;;;;;;;;;;;;;-140.72;37.97;52457.81;5044476;27;19921;-70
2024/01/22 02:23:39;;;;;;;;;;;;;;;-140.72;22.93;52470.00;5048512;27;19992;-69
2024/01/22 02:26:04;;;;;;;;;;;;;;;-140.72;21.42;52463.91;5087643;27;20415;-69
2024/01/22 02:28:31;;;;;;;;;;;;;;;-140.72;56.52;52474.06;5054444;27;19926;-70
2024/01/22 02:30:56;;;;;;;;;;;;;;;-140.72;65.66;52508.56;5075957;27;20016;-70
2024/01/22 02:33:21;;;;;;;;;;;;;;;-140.72;99.44;52488.25;5080223;27;19972;-70
2024/01/22 02:35:47;;;;;;;;;;;;;;;-140.72;71.05;52492.31;5117265;27;19950;-70
2024/01/22 02:38:12;;;;;;;;;;;;;;;-140.72;70.32;52482.16;5098765;27;20017;-70
2024/01/22 02:40:37;;;;;;;;;;;;;;;-140.72;42.25;52439.56;5077598;27;19917;-70
2024/01/22 02:43:02;;;;;;;;;;;;;;;-140.72;15.26;52472.03;5048604;27;20439;-70
2024/01/22 02:45:28;;;;;;;;;;;;;;;-140.72;43.44;52480.16;5048696;27;19928;-69
2024/01/22 02:47:53;;;;;;;;;;;;;;;-140.72;2.70;52467.97;5036106;27;20077;-69
2024/01/22 02:50:18;;;;;;;;;;;;;;;-140.72;32.15;52476.09;5060405;27;19962;-69
2024/01/22 02:52:43;;;;;;;;;;;;;;;-140.72;0.00;52431.44;5068615;27;19924;-70
2024/01/22 02:55:09;;;;;;;;;;;;;;;-140.72;0.00;52463.91;5056291;27;20275;-70
2024/01/22 02:57:34;;;;;;;;;;;;;;;-140.72;0.00;52455.78;5038837;27;19989;-70
2024/01/22 02:59:59;;;;;;;;;;;;;;;-140.72;25.02;52457.81;5042384;27;19923;-70
2024/01/22 03:02:24;;;;;;;;;;;;;;;-140.72;12.08;52474.06;5063424;27;20752;-70
2024/01/22 03:04:50;;;;;;;;;;;;;;;-140.72;15.42;52455.78;5034283;27;20284;-70
2024/01/22 03:07:15;;;;;;;;;;;;;;;-140.72;31.33;52451.72;5065906;27;20274;-70
2024/01/22 03:09:40;;;;;;;;;;;;;;;-140.72;49.74;52431.44;5058968;27;19921;-70
2024/01/22 03:12:05;;;;;;;;;;;;;;;-140.72;58.63;52463.91;5055666;27;19964;-71
2024/01/22 03:14:31;;;;;;;;;;;;;;;-140.72;61.35;52490.28;5085099;27;19917;-70
2024/01/22 03:16:56;;;;;;;;;;;;;;;-140.72;67.89;52488.25;5059357;27;20099;-69
2024/01/22 03:19:21;;;;;;;;;;;;;;;-140.72;68.02;52457.81;5106445;27;20398;-70
2024/01/22 03:21:46;;;;;;;;;;;;;;;-140.72;54.32;52476.09;5118608;27;19923;-70
2024/01/22 03:24:12;;;;;;;;;;;;;;;-140.72;63.94;52496.38;5075997;27;19920;-69
2024/01/22 03:26:37;;;;;;;;;;;;;;;-140.72;45.57;52443.63;5100194;27;19927;-69
2024/01/22 03:29:02;;;;;;;;;;;;;;;-140.72;56.33;52463.91;5100881;27;19922;-69
2024/01/22 03:31:29;;;;;;;;;;;;;;;-140.72;64.32;52498.41;5099270;27;19974;-69
2024/01/22 03:33:55;;;;;;;;;;;;;;;-140.72;43.03;52467.97;5081975;27;19916;-69
2024/01/22 03:36:20;;;;;;;;;;;;;;;-140.72;58.69;52476.09;5053093;27;20344;-69
2024/01/22 03:38:46;;;;;;;;;;;;;;;-140.72;35.83;52463.91;5056177;27;19921;-70
2024/01/22 03:41:11;;;;;;;;;;;;;;;-140.72;39.37;52455.78;5096891;27;19921;-70
2024/01/22 03:43:37;;;;;;;;;;;;;;;-140.72;89.46;52486.22;5089557;27;19919;-70
2024/01/22 03:46:02;;;;;;;;;;;;;;;-140.72;54.74;52453.75;5070427;27;20306;-69
2024/01/22 03:48:27;;;;;;;;;;;;;;;-140.72;68.46;52455.78;5114787;27;19978;-69
2024/01/22 03:50:53;;;;;;;;;;;;;;;-140.72;58.58;52443.63;5049730;27;19984;-69
2024/01/22 03:53:19;;;;;;;;;;;;;;;-140.72;59.61;52488.25;5070645;27;19921;-69
2024/01/22 03:55:44;;;;;;;;;;;;;;;-140.72;54.82;52457.81;5073568;27;19917;-69
2024/01/22 03:58:09;;;;;;;;;;;;;;;-140.72;66.65;52488.25;5051515;27;20283;-69
2024/01/22 04:00:35;;;;;;;;;;;;;;;-140.72;81.99;52463.91;5049920;27;19917;-70
2024/01/22 04:03:00;;;;;;;;;;;;;;;-140.72;66.33;52451.72;5116168;27;19972;-69
2024/01/22 04:05:25;;;;;;;;;;;;;;;-140.72;92.04;52439.56;5049713;27;20337;-69
2024/01/22 04:07:50;;;;;;;;;;;;;;;-140.72;100.00;52449.72;5049059;27;19921;-69
2024/01/22 04:10:15;;;;;;;;;;;;;;;-140.72;96.29;52433.47;5121877;27;19987;-69
2024/01/22 04:12:41;;;;;;;;;;;;;;;-140.72;90.92;52508.56;5122090;27;20281;-69
2024/01/22 04:15:06;;;;;;;;;;;;;;;-140.72;55.54;52455.78;5068442;27;20429;-70
2024/01/22 04:17:32;;;;;;;;;;;;;;;-140.72;85.14;52461.88;5095539;27;19972;-69
2024/01/22 04:19:57;;;;;;;;;;;;;;;-140.72;90.48;52411.16;5146620;27;20111;-70
2024/01/22 04:22:22;;;;;;;;;;;;;;;-140.72;85.38;52494.34;5112268;27;19924;-70
2024/01/22 04:24:47;;;;;;;;;;;;;;;-140.72;100.00;52461.88;5077562;27;20010;-70
2024/01/22 04:27:13;;;;;;;;;;;;;;;-140.72;100.00;52445.66;5059972;27;20043;-70
2024/01/22 04:29:38;;;;;;;;;;;;;;;-140.72;100.00;52484.19;5072922;27;20020;-69
2024/01/22 04:32:03;;;;;;;;;;;;;;;-140.72;100.00;52474.06;5067173;27;20378;-69
2024/01/22 04:34:29;;;;;;;;;;;;;;;-140.72;100.00;52494.34;5071402;27;19924;-70
2024/01/22 04:36:54;;;;;;;;;;;;;;;-140.72;100.00;52486.22;5084413;27;20420;-70
2024/01/22 04:39:19;;;;;;;;;;;;;;;-140.72;100.00;52435.50;5045585;27;19918;-70
2024/01/22 04:41:44;;;;;;;;;;;;;;;-140.72;100.00;52447.69;5062978;27;19965;-71
2024/01/22 04:44:10;;;;;;;;;;;;;;;-140.72;100.00;52467.97;5098739;27;20242;-70
2024/01/22 04:46:35;;;;;;;;;;;;;;;-140.72;100.00;52463.91;5058104;27;19925;-70
2024/01/22 04:49:00;;;;;;;;;;;;;;;-140.72;100.00;52459.84;5031422;27;20361;-70
2024/01/22 04:51:25;;;;;;;;;;;;;;;-140.72;100.00;52419.28;5063671;27;19919;-69
2024/01/22 04:53:50;;;;;;;;;;;;;;;-140.72;100.00;52435.50;5072970;27;19920;-69
2024/01/22 04:56:16;;;;;;;;;;;;;;;-140.72;100.00;52467.97;5072528;27;19921;-70
2024/01/22 04:58:41;;;;;;;;;;;;;;;-140.72;100.00;52474.06;5030829;27;19925;-70
2024/01/22 05:01:06;;;;;;;;;;;;;;;-140.72;100.00;52437.53;5049974;27;20406;-70
2024/01/22 05:03:31;;;;;;;;;;;;;;;-140.72;100.00;52455.78;5095420;27;19927;-69
2024/01/22 05:05:56;;;;;;;;;;;;;;;-140.72;100.00;52467.97;5071821;27;19922;-70
2024/01/22 05:08:22;;;;;;;;;;;;;;;-140.72;100.00;52431.44;5107476;27;19919;-69
2024/01/22 05:10:47;;;;;;;;;;;;;;;-140.72;100.00;52482.16;5072219;27;20010;-70
2024/01/22 05:13:13;;;;;;;;;;;;;;;-140.72;100.00;52465.94;5121085;27;20389;-70
2024/01/22 05:15:38;;;;;;;;;;;;;;;-140.72;100.00;52463.91;5053755;27;20013;-70
2024/01/22 05:18:04;;;;;;;;;;;;;;;-140.72;100.00;52445.66;5096874;27;19923;-72
2024/01/22 05:20:29;;;;;;;;;;;;;;;-140.72;100.00;52445.66;5103396;27;20024;-71
2024/01/22 05:22:54;;;;;;;;;;;;;;;-140.72;100.00;52447.69;5068337;27;19916;-70
2024/01/22 05:25:20;;;;;;;;;;;;;;;-140.72;100.00;52437.53;5038922;27;19962;-70
2024/01/22 05:27:47;;;;;;;;;;;;;;;-140.72;100.00;52459.84;5038368;27;19916;-71
2024/01/22 05:30:12;;;;;;;;;;;;;;;-140.72;100.00;52451.72;5046691;27;20400;-71
2024/01/22 05:32:38;;;;;;;;;;;;;;;-140.72;100.00;52453.75;5040887;27;19921;-71
2024/01/22 05:35:03;;;;;;;;;;;;;;;-140.72;100.00;52451.72;5041758;27;20034;-71
2024/01/22 05:37:28;;;;;;;;;;;;;;;-140.72;100.00;52447.69;5037945;27;19948;-71
2024/01/22 05:39:54;;;;;;;;;;;;;;;-140.72;100.00;52455.78;5040934;27;19921;-71
2024/01/22 05:42:19;;;;;;;;;;;;;;;-140.72;100.00;52480.16;5040664;27;19947;-71
2024/01/22 05:44:44;;;;;;;;;;;;;;;-140.72;100.00;52425.34;5036615;27;19917;-70
2024/01/22 05:47:09;;;;;;;;;;;;;;;-140.72;100.00;52445.66;5051442;27;19917;-71
2024/01/22 05:49:34;;;;;;;;;;;;;;;-140.72;100.00;52455.78;5060709;27;19928;-70
2024/01/22 05:52:00;;;;;;;;;;;;;;;-140.72;100.00;52427.38;5049537;27;19920;-71
2024/01/22 05:54:25;;;;;;;;;;;;;;;-140.72;100.00;52455.78;5109554;27;19915;-70
2024/01/22 05:56:50;;;;;;;;;;;;;;;-140.72;98.86;52445.66;5090555;27;20386;-71
2024/01/22 05:59:16;;;;;;;;;;;;;;;-140.72;76.98;52447.69;5073616;27;19917;-71
2024/01/22 06:01:41;;;;;;;;;;;;;;;-140.72;77.59;52439.56;5120392;27;20314;-71
2024/01/22 06:04:06;;;;;;;;;;;;;;;-140.72;56.30;52455.78;5106037;27;19940;-71
2024/01/22 06:06:32;;;;;;;;;;;;;;;-140.72;60.78;52455.78;5031250;28;19920;-71
2024/01/22 06:08:57;;;;;;;;;;;;;;;-140.72;70.21;52457.81;5030112;28;20394;-74
2024/01/22 06:11:22;;;;;;;;;;;;;;;-140.72;24.84;52463.91;5030197;28;19917;-71
2024/01/22 06:13:47;;;;;;;;;;;;;;;-140.72;30.03;52413.19;5032516;28;19956;-71
2024/01/22 06:16:13;;;;;;;;;;;;;;;-140.72;1.21;52382.75;5101423;27;19915;-71
2024/01/22 06:18:45;;;;;;;;;;;;;;;-140.72;2.15;52390.84;5065395;27;20275;-71
2024/01/22 06:21:11;;;;;;;;;;;;;;;-140.72;38.90;52467.97;5038081;28;20000;-71
2024/01/22 06:23:36;;;;;;;;;;;;;;;-140.72;23.40;52439.56;5047622;28;20024;-71
2024/01/22 06:26:01;;;;;;;;;;;;;;;-140.72;6.66;52447.69;5030912;28;20022;-70
2024/01/22 06:28:27;;;;;;;;;;;;;;;-140.72;0.00;52392.88;5057192;28;20030;-72
2024/01/22 06:30:53;;;;;;;;;;;;;;;-140.72;0.00;52417.25;5041519;28;19917;-73
2024/01/22 06:33:19;;;;;;;;;;;;;;;-140.72;0.00;52419.28;5057442;28;19924;-74
2024/01/22 06:35:44;;;;;;;;;;;;;;;-140.72;0.82;52427.38;5044635;28;20295;-72
2024/01/22 06:38:10;;;;;;;;;;;;;;;-140.72;0.00;52447.69;5054716;28;20345;-71
2024/01/22 06:40:35;;;;;;;;;;;;;;;-140.72;0.00;52459.84;5037228;28;19917;-71
2024/01/22 06:43:00;;;;;;;;;;;;;;;-140.72;3.84;52427.38;5044349;28;20007;-71
2024/01/22 06:45:25;;;;;;;;;;;;;;;-140.72;0.00;52447.69;5040042;28;19923;-71
2024/01/22 06:47:52;;;;;;;;;;;;;;;-140.72;1.53;52435.50;5044415;27;19952;-70
2024/01/22 06:50:17;;;;;;;;;;;;;;;-140.72;0.00;52390.84;5066376;27;19964;-73
2024/01/22 06:52:43;;;;;;;;;;;;;;;-140.72;0.00;52417.25;5040583;28;19918;-74
2024/01/22 06:55:08;;;;;;;;;;;;;;;-140.72;0.00;52415.22;5034168;28;20012;-71
2024/01/22 06:57:34;;;;;;;;;;;;;;;-140.72;0.00;52443.63;5061504;27;20397;-73
2024/01/22 07:00:02;;;;;;;;;;;;;;;-140.72;0.00;52461.88;5082343;27;19932;-74
2024/01/22 07:02:28;;;;;;;;;;;;;;;-140.72;0.00;52409.13;5060833;27;21383;-71
2024/01/22 07:04:55;;;;;;;;;;;;;;;-140.72;0.00;52447.69;5029434;28;20010;-71
2024/01/22 07:07:20;;;;;;;;;;;;;;;-140.72;0.00;52398.97;5054892;27;19921;-71
2024/01/22 07:09:45;;;;;;;;;;;;;;;-140.72;0.00;52429.41;5030006;28;19924;-71
2024/01/22 07:12:10;;;;;;;;;;;;;;;-140.72;0.00;52447.69;5032673;28;19928;-71
2024/01/22 07:14:36;;;;;;;;;;;;;;;-140.72;0.00;52421.28;5041828;27;19921;-71
2024/01/22 07:17:03;;;;;;;;;;;;;;;-140.72;0.00;52425.34;5044015;27;20293;-72
2024/01/22 07:19:28;;;;;;;;;;;;;;;-140.72;0.00;52405.06;5050477;27;19917;-71
2024/01/22 07:21:53;;;;;;;;;;;;;;;-140.72;0.00;52415.22;5049704;27;19924;-71
2024/01/22 07:24:18;;;;;;;;;;;;;;;-140.72;0.00;52417.25;5040051;27;19935;-71
2024/01/22 07:26:46;;;;;;;;;;;;;;;-140.72;0.00;52435.50;5049688;27;19956;-71
2024/01/22 07:29:12;;;;;;;;;;;;;;;-140.72;0.00;52431.44;5043880;27;20286;-71
2024/01/22 07:31:37;;;;;;;;;;;;;;;-140.72;0.00;52463.91;5038259;27;19932;-71
2024/01/22 07:34:02;;;;;;;;;;;;;;;-140.72;0.00;52390.84;5047963;27;19921;-71
2024/01/22 07:36:28;;;;;;;;;;;;;;;-140.72;0.00;52401.00;5051449;27;20287;-72
2024/01/22 07:38:56;;;;;;;;;;;;;;;-140.72;0.00;52403.03;5067193;27;19960;-71
2024/01/22 07:41:21;;;;;;;;;;;;;;;-140.72;0.00;52435.50;5047012;27;20346;-72
2024/01/22 07:43:47;;;;;;;;;;;;;;;-140.72;15.54;52455.78;5052469;27;19927;-70
2024/01/22 07:46:12;;;;;;;;;;;;;;;-140.72;46.34;52419.28;5045955;27;19921;-71
2024/01/22 07:48:37;;;;;;;;;;;;;;;-140.72;46.23;52451.72;5049269;27;20409;-71
2024/01/22 07:51:03;;;;;;;;;;;;;;;-140.72;75.91;52419.28;5046469;28;19921;-73
2024/01/22 07:53:28;;;;;;;;;;;;;;;-140.72;62.29;52439.56;5037198;28;19921;-73
2024/01/22 07:55:53;;;;;;;;;;;;;;;-140.72;100.00;52439.56;5040098;28;20355;-73
2024/01/22 07:58:19;;;;;;;;;;;;;;;-140.72;100.00;52447.69;5038682;28;20378;-72
2024/01/22 08:00:44;;;;;;;;;;;;;;;-140.72;94.14;52482.16;5048406;27;20015;-73
2024/01/22 08:03:09;;;;;;;;;;;;;;;-140.72;93.71;52427.38;5051062;27;20330;-72
2024/01/22 08:05:35;;;;;;;;;;;;;;;-140.72;97.19;52451.72;5057326;27;19960;-73
2024/01/22 08:08:01;;;;;;;;;;;;;;;-140.72;100.00;52423.31;5091508;27;19994;-70
2024/01/22 08:10:26;;;;;;;;;;;;;;;-140.72;100.00;52467.97;5055688;27;20452;-70
2024/01/22 08:12:52;;;;;;;;;;;;;;;-140.72;100.00;52455.78;5053211;27;19921;-70
2024/01/22 08:15:17;;;;;;;;;;;;;;;-140.72;100.00;52451.72;5041679;27;19925;-71
2024/01/22 08:17:43;;;;;;;;;;;;;;;-140.72;100.00;52474.06;5077249;27;20007;-71
2024/01/22 08:20:08;;;;;;;;;;;;;;;-140.72;100.00;52476.09;5054048;27;19925;-71
2024/01/22 08:22:34;;;;;;;;;;;;;;;-140.72;100.00;52480.16;5066654;27;19947;-71
2024/01/22 08:24:59;;;;;;;;;;;;;;;-140.72;100.00;52459.84;5044525;27;19949;-70
2024/01/22 08:27:24;;;;;;;;;;;;;;;-140.72;100.00;52439.56;5062108;27;20003;-71
2024/01/22 08:29:49;;;;;;;;;;;;;;;-140.72;100.00;52443.63;5056407;27;20011;-71
2024/01/22 08:32:15;;;;;;;;;;;;;;;-140.72;100.00;52459.84;5052834;27;19920;-71
2024/01/22 08:34:40;;;;;;;;;;;;;;;-140.72;100.00;52449.72;5047681;27;19970;-71
2024/01/22 08:37:05;;;;;;;;;;;;;;;-140.72;100.00;52472.03;5034906;27;20347;-71
2024/01/22 08:39:31;;;;;;;;;;;;;;;-140.72;100.00;52459.84;5085826;27;19931;-71
2024/01/22 08:41:56;;;;;;;;;;;;;;;-140.72;68.66;52482.16;5104213;27;19926;-71
2024/01/22 08:44:21;;;;;;;;;;;;;;;-140.72;70.51;52472.03;5075493;27;19917;-71
2024/01/22 08:46:46;;;;;;;;;;;;;;;-140.72;58.22;52461.88;5040678;28;19921;-71
2024/01/22 08:49:12;;;;;;;;;;;;;;;-140.72;27.33;52445.66;5040264;27;20289;-71
2024/01/22 08:51:37;;;;;;;;;;;;;;;-140.72;12.09;52476.09;5072634;27;19924;-71
2024/01/22 08:54:02;;;;;;;;;;;;;;;-140.72;6.04;52516.66;5077191;27;19921;-71
2024/01/22 08:56:27;;;;;;;;;;;;;;;-140.72;0.00;52459.84;5098465;27;20945;-71
2024/01/22 08:58:53;;;;;;;;;;;;;;;-140.72;1.44;52472.03;5064589;27;19925;-71
2024/01/22 09:01:18;;;;;;;;;;;;;;;-140.72;9.13;52435.50;5058398;27;19925;-71
2024/01/22 09:03:43;;;;;;;;;;;;;;;-140.72;6.85;52492.31;5079927;27;19928;-71
2024/01/22 09:06:08;;;;;;;;;;;;;;;-140.72;0.00;52459.84;5053209;27;19932;-71
2024/01/22 09:08:34;;;;;;;;;;;;;;;-140.72;0.00;52492.31;5045270;27;20405;-71
2024/01/22 09:11:02;;;;;;;;;;;;;;;-140.72;0.00;52492.31;5045212;27;19964;-71
2024/01/22 09:13:27;;;;;;;;;;;;;;;-140.72;0.00;52486.22;5060846;27;20422;-71
2024/01/22 09:15:53;;;;;;;;;;;;;;;-140.72;0.00;52439.56;5062050;27;20006;-71
2024/01/22 09:18:18;;;;;;;;;;;;;;;-140.72;0.00;52486.22;5070570;27;19972;-70
2024/01/22 09:20:43;;;;;;;;;;;;;;;-140.72;0.00;52486.22;5081902;27;19923;-70
2024/01/22 09:23:09;;;;;;;;;;;;;;;-140.72;6.81;52539.00;5063177;27;19917;-70
2024/01/22 09:25:34;;;;;;;;;;;;;;;-140.72;0.00;52502.47;5055518;27;19917;-70
2024/01/22 09:28:00;;;;;;;;;;;;;;;-140.72;0.00;52474.06;5050283;27;19974;-70
2024/01/22 09:30:25;;;;;;;;;;;;;;;-140.72;0.00;52508.56;5054943;27;19915;-71
2024/01/22 09:32:52;;;;;;;;;;;;;;;-140.72;0.00;52459.84;5050233;27;20000;-71
2024/01/22 09:35:17;;;;;;;;;;;;;;;-140.72;0.00;52484.19;5070172;27;19921;-72
2024/01/22 09:37:42;;;;;;;;;;;;;;;-140.72;4.23;52482.16;5040824;27;20362;-72
2024/01/22 09:40:11;;;;;;;;;;;;;;;-140.72;0.00;52486.22;5054760;27;20015;-71
2024/01/22 09:42:37;;;;;;;;;;;;;;;-140.72;0.00;52463.91;5112370;27;19919;-71
2024/01/22 09:45:02;;;;;;;;;;;;;;;-140.72;0.00;52512.59;5065830;27;19920;-72
2024/01/22 09:47:28;;;;;;;;;;;;;;;-140.72;0.00;52480.16;5059439;27;20065;-71
2024/01/22 09:49:53;;;;;;;;;;;;;;;-140.72;0.00;52470.00;5043322;27;20344;-72
2024/01/22 09:52:20;;;;;;;;;;;;;;;-140.72;0.00;52522.75;5084579;27;19919;-72
2024/01/22 09:54:46;;;;;;;;;;;;;;;-140.72;0.00;52496.38;5046329;27;20546;-72
2024/01/22 09:57:15;;;;;;;;;;;;;;;-140.72;0.00;52480.16;5074660;27;20019;-73
2024/01/22 09:59:41;;;;;;;;;;;;;;;-140.72;0.00;52494.34;5047775;27;19927;-72
2024/01/22 10:02:09;;;;;;;;;;;;;;;-140.72;0.00;52465.94;5046421;27;19993;-72
2024/01/22 10:04:34;;;;;;;;;;;;;;;-140.72;0.00;52488.25;5082199;27;19915;-72
2024/01/22 10:07:01;;;;;;;;;;;;;;;-140.72;0.00;52478.13;5082355;27;19997;-72
2024/01/22 10:09:26;;;;;;;;;;;;;;;-140.72;0.00;52476.09;5092254;27;20008;-72
2024/01/22 10:11:51;;;;;;;;;;;;;;;-140.72;0.00;52536.97;5092967;27;20011;-72
2024/01/22 10:14:28;;;;;;;;;;;;;;;-140.72;0.00;52453.75;5085102;27;20391;-72
2024/01/22 10:16:53;;;;;;;;;;;;;;;-140.72;0.00;52447.69;5067070;27;20012;-72
2024/01/22 10:19:24;;;;;;;;;;;;;;;-140.72;0.00;52494.34;5071758;27;20376;-72
2024/01/22 10:21:59;;;;;;;;;;;;;;;-140.72;0.00;52498.41;5123378;27;19940;-72
2024/01/22 10:24:24;;;;;;;;;;;;;;;-140.72;0.00;52465.94;5060746;27;19921;-72
2024/01/22 10:26:49;;;;;;;;;;;;;;;-140.72;0.00;52419.28;5118889;27;19927;-72
2024/01/22 10:29:15;;;;;;;;;;;;;;;-140.72;0.00;52472.03;5084676;27;20259;-72
2024/01/22 10:31:54;;;;;;;;;;;;;;;-140.72;0.00;52431.44;5077514;27;19919;-72
2024/01/22 10:34:19;;;;;;;;;;;;;;;-140.72;0.00;52472.03;5092371;27;19929;-72
2024/01/22 10:36:44;;;;;;;;;;;;;;;-140.72;0.00;52439.56;5095336;27;20361;-72
2024/01/22 10:39:09;;;;;;;;;;;;;;;-140.72;0.00;52463.91;5086585;27;20355;-72
2024/01/22 10:41:35;;;;;;;;;;;;;;;-140.72;0.00;52415.22;5106046;27;20366;-72
2024/01/22 10:44:00;;;;;;;;;;;;;;;-140.72;0.00;52419.28;5079950;27;19916;-72
2024/01/22 10:46:26;;;;;;;;;;;;;;;-140.72;0.00;52472.03;5033967;28;20335;-72
2024/01/22 10:48:52;;;;;;;;;;;;;;;-140.72;0.00;52472.03;5034590;28;19924;-72
2024/01/22 10:51:18;;;;;;;;;;;;;;;-140.72;0.00;52451.72;5038321;27;19990;-72
2024/01/22 10:53:44;;;;;;;;;;;;;;;-140.72;0.00;52445.66;5048893;27;20122;-72
2024/01/22 10:56:20;;;;;;;;;;;;;;;-140.72;0.00;52447.69;5040913;27;20007;-72
2024/01/22 10:58:46;;;;;;;;;;;;;;;-140.72;0.00;52472.03;5046966;27;19917;-72
2024/01/22 11:01:11;;;;;;;;;;;;;;;-140.72;0.00;52427.38;5061024;27;20344;-71
2024/01/22 11:03:40;;;;;;;;;;;;;;;-140.72;0.00;52429.41;5035944;27;19925;-71
2024/01/22 11:06:07;;;;;;;;;;;;;;;-140.72;0.00;52427.38;5085168;27;19919;-71
2024/01/22 11:08:33;;;;;;;;;;;;;;;-140.72;0.00;52476.09;5111631;27;19917;-71
2024/01/22 11:10:59;;;;;;;;;;;;;;;-140.72;0.00;52484.19;5093509;27;19985;-70
2024/01/22 11:13:25;;;;;;;;;;;;;;;-140.72;0.00;52451.72;5090026;27;19917;-71
2024/01/22 11:15:50;;;;;;;;;;;;;;;-140.72;0.00;52431.44;5081033;27;20005;-71
2024/01/22 11:18:16;;;;;;;;;;;;;;;-140.72;0.00;52472.03;5034014;28;19924;-71
2024/01/22 11:20:41;;;;;;;;;;;;;;;-140.72;0.00;52407.09;5068205;27;19925;-71
2024/01/22 11:23:09;;;;;;;;;;;;;;;-140.72;0.00;52439.56;5063011;27;19921;-71
2024/01/22 11:25:35;;;;;;;;;;;;;;;-140.72;0.00;52451.72;5065764;27;19919;-71
2024/01/22 11:28:04;;;;;;;;;;;;;;;-140.72;0.00;52407.09;5038180;27;19917;-71
2024/01/22 11:30:35;;;;;;;;;;;;;;;-140.72;0.00;52447.69;5089337;27;19978;-71
2024/01/22 11:33:00;;;;;;;;;;;;;;;-140.72;0.00;52431.44;5071265;27;19985;-71
2024/01/22 11:35:39;;;;;;;;;;;;;;;-140.72;0.00;52451.72;5036122;27;21302;-71
2024/01/22 11:38:04;;;;;;;;;;;;;;;-140.72;0.00;52419.28;5038365;27;19917;-71
2024/01/22 11:40:48;;;;;;;;;;;;;;;-140.72;0.00;52427.38;5043850;27;20266;-71
2024/01/22 11:43:15;;;;;;;;;;;;;;;-140.72;0.00;52427.38;5064388;27;19915;-72
2024/01/22 11:45:40;;;;;;;;;;;;;;;-140.72;0.00;52451.72;5085671;27;20009;-71
2024/01/22 11:48:19;;;;;;;;;;;;;;;-140.72;0.00;52431.44;5109193;27;19982;-71
2024/01/22 11:50:56;;;;;;;;;;;;;;;-140.72;0.00;52407.09;5045848;27;19928;-71
2024/01/22 11:53:21;;;;;;;;;;;;;;;-140.72;0.00;52423.31;5060474;27;19924;-71
2024/01/22 11:55:56;;;;;;;;;;;;;;;-140.72;0.00;52403.03;5066008;27;20386;-71
2024/01/22 11:58:21;;;;;;;;;;;;;;;-140.72;0.00;52455.78;5074735;27;19976;-71
2024/01/22 12:00:46;;;;;;;;;;;;;;;-140.72;0.00;52425.34;5053361;27;20372;-71
2024/01/22 12:03:12;;;;;;;;;;;;;;;-140.72;0.00;52435.50;5046820;27;20259;-71
2024/01/22 12:05:37;;;;;;;;;;;;;;;-140.72;0.00;52435.50;5039922;27;19923;-71
2024/01/22 12:08:02;;;;;;;;;;;;;;;-140.72;0.00;52398.97;5056289;27;19992;-70
2024/01/22 12:10:28;;;;;;;;;;;;;;;-140.72;0.00;52398.97;5041478;27;20003;-71
2024/01/22 12:13:03;;;;;;;;;;;;;;;-140.72;0.00;52382.75;5032609;28;19917;-71
2024/01/22 12:15:31;;;;;;;;;;;;;;;-140.72;0.00;52388.84;5036304;27;19933;-70
2024/01/22 12:17:56;;;;;;;;;;;;;;;-140.72;0.00;52407.09;5035039;27;19979;-71
2024/01/22 12:20:23;;;;;;;;;;;;;;;-140.72;0.00;52403.03;5044740;27;19918;-71
2024/01/22 12:22:58;;;;;;;;;;;;;;;-140.72;0.00;52392.88;5041693;27;19917;-71